TimeCST,TemperatureF,Dew PointF,Humidity,Sea Level PressureIn,VisibilityMPH,Wind Direction,Wind SpeedMPH,Gust SpeedMPH,PrecipitationIn,Events,Conditions,WindDirDegrees,DateUTC
12:52 AM,30.0,28.0,92,30.51,6.0,Calm,Calm,-,N/A,,Clear,0,2012-11-17 06:52:00
1:52 AM,28.0,26.1,92,30.52,6.0,Calm,Calm,-,N/A,,Clear,0,2012-11-17 07:52:00
2:52 AM,28.0,25.0,88,30.52,5.0,Calm,Calm,-,N/A,,Clear,0,2012-11-17 08:52:00
3:52 AM,26.1,24.1,92,30.52,6.0,East,3.5,-,N/A,,Clear,90,2012-11-17 09:52:00
4:52 AM,28.0,24.1,85,30.53,6.0,SE,4.6,-,N/A,,Clear,130,2012-11-17 10:52:00
5:52 AM,27.0,24.1,89,30.54,6.0,East,3.5,-,N/A,,Clear,100,2012-11-17 11:52:00
6:52 AM,27.0,24.1,89,30.56,4.0,Calm,Calm,-,N/A,,Clear,0,2012-11-17 12:52:00
7:52 AM,30.0,28.0,92,30.56,4.0,Calm,Calm,-,N/A,,Clear,0,2012-11-17 13:52:00
8:52 AM,36.0,32.0,86,30.57,4.0,Calm,Calm,-,N/A,,Clear,0,2012-11-17 14:52:00
9:52 AM,42.1,33.1,70,30.57,5.0,SE,5.8,-,N/A,,Haze,140,2012-11-17 15:52:00
10:52 AM,46.9,35.1,63,30.55,5.0,SSE,9.2,-,N/A,,Haze,150,2012-11-17 16:52:00
11:52 AM,50.0,34.0,54,30.52,6.0,SSE,10.4,-,N/A,,Haze,160,2012-11-17 17:52:00
12:52 PM,52.0,34.0,50,30.51,6.0,SSE,10.4,-,N/A,,Haze,150,2012-11-17 18:52:00
1:52 PM,52.0,32.0,47,30.50,7.0,South,9.2,-,N/A,,Clear,170,2012-11-17 19:52:00
2:52 PM,52.0,32.0,47,30.49,7.0,SSE,5.8,-,N/A,,Clear,160,2012-11-17 20:52:00
3:52 PM,50.0,34.0,54,30.48,7.0,SE,5.8,-,N/A,,Clear,140,2012-11-17 21:52:00
4:52 PM,43.0,33.1,68,30.48,7.0,SE,5.8,-,N/A,,Clear,130,2012-11-17 22:52:00
5:52 PM,39.9,32.0,73,30.47,7.0,SE,8.1,-,N/A,,Clear,130,2012-11-17 23:52:00
6:52 PM,-9999,50.0,N/A,30.46,-9999.0,North,-9999.0,-,N/A,,Unknown,0,2012-11-18 00:52:00
7:52 PM,37.9,30.9,76,30.47,7.0,SE,8.1,-,N/A,,Clear,130,2012-11-18 01:52:00
8:52 PM,39.0,30.9,73,30.48,6.0,ESE,3.5,-,N/A,,Haze,120,2012-11-18 02:52:00
9:52 PM,34.0,28.9,82,30.47,6.0,Calm,Calm,-,N/A,,Haze,0,2012-11-18 03:52:00
10:52 PM,34.0,28.9,82,30.47,6.0,Calm,Calm,-,N/A,,Haze,0,2012-11-18 04:52:00
11:52 PM,32.0,28.0,85,30.47,6.0,ESE,8.1,-,N/A,,Clear,120,2012-11-18 05:52:00